sensor_id;sensor_type;location;lat;lon;timestamp;P1;durP1;ratioP1;P2;durP2;ratioP2
10847;SDS011;5477;48.806;9.154;2022-08-19T00:01:42;15.53;;;13.93;;
10847;SDS011;5477;48.806;9.154;2022-08-19T00:04:19;18.33;;;13.03;;
10847;SDS011;5477;48.806;9.154;2022-08-19T00:06:49;16.37;;;13.87;;
10847;SDS011;5477;48.806;9.154;2022-08-19T00:09:20;16.47;;;13.77;;
10847;SDS011;5477;48.806;9.154;2022-08-19T00:11:50;16.17;;;14.00;;
10847;SDS011;5477;48.806;9.154;2022-08-19T00:14:18;15.63;;;13.77;;
10847;SDS011;5477;48.806;9.154;2022-08-19T00:16:48;15.07;;;13.50;;
10847;SDS011;5477;48.806;9.154;2022-08-19T00:19:17;15.40;;;12.87;;
10847;SDS011;5477;48.806;9.154;2022-08-19T00:21:45;17.23;;;13.43;;
10847;SDS011;5477;48.806;9.154;2022-08-19T00:24:14;15.87;;;13.50;;
10847;SDS011;5477;48.806;9.154;2022-08-19T00:26:44;15.70;;;13.70;;
10847;SDS011;5477;48.806;9.154;2022-08-19T00:29:13;16.10;;;13.33;;
10847;SDS011;5477;48.806;9.154;2022-08-19T00:31:43;15.93;;;13.40;;
10847;SDS011;5477;48.806;9.154;2022-08-19T00:34:13;15.17;;;13.13;;
10847;SDS011;5477;48.806;9.154;2022-08-19T00:36:42;15.30;;;13.37;;
10847;SDS011;5477;48.806;9.154;2022-08-19T00:39:10;15.93;;;13.70;;
10847;SDS011;5477;48.806;9.154;2022-08-19T00:41:39;15.63;;;13.17;;
10847;SDS011;5477;48.806;9.154;2022-08-19T00:44:10;15.27;;;13.67;;
10847;SDS011;5477;48.806;9.154;2022-08-19T00:46:41;19.07;;;13.70;;
10847;SDS011;5477;48.806;9.154;2022-08-19T00:49:22;18.07;;;13.80;;
10847;SDS011;5477;48.806;9.154;2022-08-19T00:51:53;17.13;;;13.67;;
10847;SDS011;5477;48.806;9.154;2022-08-19T00:54:26;15.97;;;13.33;;
10847;SDS011;5477;48.806;9.154;2022-08-19T00:56:56;16.83;;;13.43;;
10847;SDS011;5477;48.806;9.154;2022-08-19T00:59:27;15.60;;;13.37;;
10847;SDS011;5477;48.806;9.154;2022-08-19T01:02:15;17.80;;;13.40;;
10847;SDS011;5477;48.806;9.154;2022-08-19T01:04:44;17.20;;;13.73;;
10847;SDS011;5477;48.806;9.154;2022-08-19T01:07:12;17.57;;;13.50;;
10847;SDS011;5477;48.806;9.154;2022-08-19T01:09:45;17.23;;;14.03;;
10847;SDS011;5477;48.806;9.154;2022-08-19T01:12:13;16.83;;;13.87;;
10847;SDS011;5477;48.806;9.154;2022-08-19T01:14:44;18.00;;;14.70;;
10847;SDS011;5477;48.806;9.154;2022-08-19T01:17:12;17.63;;;14.57;;
10847;SDS011;5477;48.806;9.154;2022-08-19T01:19:43;16.50;;;13.73;;
10847;SDS011;5477;48.806;9.154;2022-08-19T01:22:14;21.60;;;15.67;;
10847;SDS011;5477;48.806;9.154;2022-08-19T01:24:56;18.43;;;14.63;;
10847;SDS011;5477;48.806;9.154;2022-08-19T01:27:25;15.87;;;14.07;;
10847;SDS011;5477;48.806;9.154;2022-08-19T01:30:00;17.83;;;14.33;;
10847;SDS011;5477;48.806;9.154;2022-08-19T01:32:28;18.37;;;15.07;;
10847;SDS011;5477;48.806;9.154;2022-08-19T01:34:59;16.33;;;13.83;;
10847;SDS011;5477;48.806;9.154;2022-08-19T01:37:28;17.73;;;14.60;;
10847;SDS011;5477;48.806;9.154;2022-08-19T01:39:58;17.30;;;15.00;;
10847;SDS011;5477;48.806;9.154;2022-08-19T01:42:31;17.93;;;14.90;;
10847;SDS011;5477;48.806;9.154;2022-08-19T01:44:59;17.53;;;14.90;;
10847;SDS011;5477;48.806;9.154;2022-08-19T01:47:27;18.33;;;15.43;;
10847;SDS011;5477;48.806;9.154;2022-08-19T01:49:55;17.57;;;14.97;;
10847;SDS011;5477;48.806;9.154;2022-08-19T01:52:25;17.77;;;14.93;;
10847;SDS011;5477;48.806;9.154;2022-08-19T01:54:54;19.37;;;15.20;;
10847;SDS011;5477;48.806;9.154;2022-08-19T01:57:23;17.40;;;14.93;;
10847;SDS011;5477;48.806;9.154;2022-08-19T01:59:52;18.20;;;15.23;;
10847;SDS011;5477;48.806;9.154;2022-08-19T02:02:20;19.17;;;15.17;;
10847;SDS011;5477;48.806;9.154;2022-08-19T02:04:48;18.43;;;15.90;;
10847;SDS011;5477;48.806;9.154;2022-08-19T02:07:18;20.53;;;16.80;;
10847;SDS011;5477;48.806;9.154;2022-08-19T02:09:46;18.63;;;16.63;;
10847;SDS011;5477;48.806;9.154;2022-08-19T02:12:14;19.50;;;15.67;;
10847;SDS011;5477;48.806;9.154;2022-08-19T02:14:44;20.83;;;16.00;;
10847;SDS011;5477;48.806;9.154;2022-08-19T02:17:12;19.50;;;16.13;;
10847;SDS011;5477;48.806;9.154;2022-08-19T02:19:40;20.73;;;16.60;;
10847;SDS011;5477;48.806;9.154;2022-08-19T02:22:08;20.03;;;16.77;;
10847;SDS011;5477;48.806;9.154;2022-08-19T02:24:36;23.57;;;18.07;;
10847;SDS011;5477;48.806;9.154;2022-08-19T02:27:04;21.53;;;17.17;;
10847;SDS011;5477;48.806;9.154;2022-08-19T02:29:32;22.80;;;17.33;;
10847;SDS011;5477;48.806;9.154;2022-08-19T02:32:02;22.23;;;16.87;;
10847;SDS011;5477;48.806;9.154;2022-08-19T02:34:31;21.00;;;17.30;;
10847;SDS011;5477;48.806;9.154;2022-08-19T02:36:59;21.33;;;18.27;;
10847;SDS011;5477;48.806;9.154;2022-08-19T02:39:29;24.53;;;17.43;;
10847;SDS011;5477;48.806;9.154;2022-08-19T02:41:56;21.40;;;17.10;;
10847;SDS011;5477;48.806;9.154;2022-08-19T02:44:25;20.57;;;17.53;;
10847;SDS011;5477;48.806;9.154;2022-08-19T02:46:57;20.87;;;17.83;;
10847;SDS011;5477;48.806;9.154;2022-08-19T02:49:26;21.63;;;18.00;;
10847;SDS011;5477;48.806;9.154;2022-08-19T02:52:00;21.37;;;18.20;;
10847;SDS011;5477;48.806;9.154;2022-08-19T02:54:28;21.83;;;18.23;;
10847;SDS011;5477;48.806;9.154;2022-08-19T02:56:56;21.80;;;18.77;;
10847;SDS011;5477;48.806;9.154;2022-08-19T02:59:24;26.33;;;18.47;;
10847;SDS011;5477;48.806;9.154;2022-08-19T03:01:52;23.47;;;19.07;;
10847;SDS011;5477;48.806;9.154;2022-08-19T03:04:20;25.73;;;20.13;;
10847;SDS011;5477;48.806;9.154;2022-08-19T03:06:50;23.43;;;19.83;;
10847;SDS011;5477;48.806;9.154;2022-08-19T03:09:19;24.83;;;19.47;;
10847;SDS011;5477;48.806;9.154;2022-08-19T03:11:47;26.63;;;19.33;;
10847;SDS011;5477;48.806;9.154;2022-08-19T03:14:18;25.87;;;20.20;;
10847;SDS011;5477;48.806;9.154;2022-08-19T03:16:47;25.57;;;20.87;;
10847;SDS011;5477;48.806;9.154;2022-08-19T03:19:18;25.83;;;20.23;;
10847;SDS011;5477;48.806;9.154;2022-08-19T03:21:47;27.47;;;21.07;;
10847;SDS011;5477;48.806;9.154;2022-08-19T03:24:17;26.27;;;20.30;;
10847;SDS011;5477;48.806;9.154;2022-08-19T03:26:47;25.27;;;20.53;;
10847;SDS011;5477;48.806;9.154;2022-08-19T03:29:18;26.07;;;21.93;;
10847;SDS011;5477;48.806;9.154;2022-08-19T03:31:56;26.67;;;21.10;;
10847;SDS011;5477;48.806;9.154;2022-08-19T03:34:25;26.73;;;21.97;;
10847;SDS011;5477;48.806;9.154;2022-08-19T03:36:56;30.10;;;21.27;;
10847;SDS011;5477;48.806;9.154;2022-08-19T03:39:28;29.03;;;21.70;;
10847;SDS011;5477;48.806;9.154;2022-08-19T03:41:56;27.00;;;22.17;;
10847;SDS011;5477;48.806;9.154;2022-08-19T03:44:48;24.20;;;20.77;;
10847;SDS011;5477;48.806;9.154;2022-08-19T03:47:16;25.33;;;21.50;;
10847;SDS011;5477;48.806;9.154;2022-08-19T03:49:44;29.33;;;23.03;;
10847;SDS011;5477;48.806;9.154;2022-08-19T03:52:12;26.63;;;22.07;;
10847;SDS011;5477;48.806;9.154;2022-08-19T03:54:42;28.50;;;22.60;;
10847;SDS011;5477;48.806;9.154;2022-08-19T03:57:11;26.53;;;22.37;;
10847;SDS011;5477;48.806;9.154;2022-08-19T03:59:39;27.13;;;21.70;;
10847;SDS011;5477;48.806;9.154;2022-08-19T04:02:08;28.20;;;22.80;;
10847;SDS011;5477;48.806;9.154;2022-08-19T04:04:38;25.87;;;21.73;;
10847;SDS011;5477;48.806;9.154;2022-08-19T04:07:08;28.40;;;23.00;;
10847;SDS011;5477;48.806;9.154;2022-08-19T04:09:36;29.40;;;23.60;;
10847;SDS011;5477;48.806;9.154;2022-08-19T04:12:06;28.87;;;22.80;;
10847;SDS011;5477;48.806;9.154;2022-08-19T04:14:35;30.43;;;23.00;;
10847;SDS011;5477;48.806;9.154;2022-08-19T04:17:03;32.17;;;24.37;;
10847;SDS011;5477;48.806;9.154;2022-08-19T04:19:32;29.03;;;22.47;;
10847;SDS011;5477;48.806;9.154;2022-08-19T04:22:01;27.33;;;22.53;;
10847;SDS011;5477;48.806;9.154;2022-08-19T04:24:30;27.73;;;22.43;;
10847;SDS011;5477;48.806;9.154;2022-08-19T04:26:58;28.97;;;23.37;;
10847;SDS011;5477;48.806;9.154;2022-08-19T04:29:28;29.10;;;22.73;;
10847;SDS011;5477;48.806;9.154;2022-08-19T04:31:57;27.53;;;22.83;;
10847;SDS011;5477;48.806;9.154;2022-08-19T04:34:34;29.10;;;22.80;;
10847;SDS011;5477;48.806;9.154;2022-08-19T04:37:23;32.73;;;23.20;;
10847;SDS011;5477;48.806;9.154;2022-08-19T04:39:59;28.10;;;23.77;;
10847;SDS011;5477;48.806;9.154;2022-08-19T04:42:45;26.53;;;23.23;;
10847;SDS011;5477;48.806;9.154;2022-08-19T04:45:14;28.37;;;23.83;;
10847;SDS011;5477;48.806;9.154;2022-08-19T04:47:43;27.00;;;23.50;;
10847;SDS011;5477;48.806;9.154;2022-08-19T04:50:22;31.00;;;23.30;;
10847;SDS011;5477;48.806;9.154;2022-08-19T04:52:51;26.97;;;23.47;;
10847;SDS011;5477;48.806;9.154;2022-08-19T04:55:20;29.33;;;23.67;;
10847;SDS011;5477;48.806;9.154;2022-08-19T04:57:48;28.10;;;24.03;;
10847;SDS011;5477;48.806;9.154;2022-08-19T05:00:18;30.30;;;23.83;;
10847;SDS011;5477;48.806;9.154;2022-08-19T05:02:46;28.07;;;23.60;;
10847;SDS011;5477;48.806;9.154;2022-08-19T05:05:15;30.40;;;23.27;;
10847;SDS011;5477;48.806;9.154;2022-08-19T05:07:44;28.63;;;23.67;;
10847;SDS011;5477;48.806;9.154;2022-08-19T05:10:12;27.40;;;23.13;;
10847;SDS011;5477;48.806;9.154;2022-08-19T05:12:40;27.80;;;23.30;;
10847;SDS011;5477;48.806;9.154;2022-08-19T05:15:09;27.03;;;23.50;;
10847;SDS011;5477;48.806;9.154;2022-08-19T05:17:38;27.17;;;23.93;;
10847;SDS011;5477;48.806;9.154;2022-08-19T05:20:27;28.60;;;24.07;;
10847;SDS011;5477;48.806;9.154;2022-08-19T05:23:12;28.70;;;24.00;;
10847;SDS011;5477;48.806;9.154;2022-08-19T05:25:48;28.53;;;24.63;;
10847;SDS011;5477;48.806;9.154;2022-08-19T05:28:17;27.07;;;23.80;;
10847;SDS011;5477;48.806;9.154;2022-08-19T05:30:46;27.27;;;23.40;;
10847;SDS011;5477;48.806;9.154;2022-08-19T05:33:18;30.27;;;24.23;;
10847;SDS011;5477;48.806;9.154;2022-08-19T05:35:46;29.33;;;23.73;;
10847;SDS011;5477;48.806;9.154;2022-08-19T05:38:15;27.03;;;23.37;;
10847;SDS011;5477;48.806;9.154;2022-08-19T05:40:44;28.37;;;23.37;;
10847;SDS011;5477;48.806;9.154;2022-08-19T05:43:15;28.23;;;23.77;;
10847;SDS011;5477;48.806;9.154;2022-08-19T05:45:43;25.13;;;22.13;;
10847;SDS011;5477;48.806;9.154;2022-08-19T05:48:12;27.73;;;22.80;;
10847;SDS011;5477;48.806;9.154;2022-08-19T05:50:42;28.37;;;23.30;;
10847;SDS011;5477;48.806;9.154;2022-08-19T05:53:11;26.27;;;22.20;;
10847;SDS011;5477;48.806;9.154;2022-08-19T05:55:40;28.10;;;23.10;;
10847;SDS011;5477;48.806;9.154;2022-08-19T05:58:08;28.50;;;24.37;;
10847;SDS011;5477;48.806;9.154;2022-08-19T06:00:37;30.23;;;22.77;;
10847;SDS011;5477;48.806;9.154;2022-08-19T06:03:06;26.73;;;22.80;;
10847;SDS011;5477;48.806;9.154;2022-08-19T06:05:39;30.77;;;23.47;;
10847;SDS011;5477;48.806;9.154;2022-08-19T06:08:18;27.13;;;22.70;;
10847;SDS011;5477;48.806;9.154;2022-08-19T06:11:12;27.77;;;23.60;;
10847;SDS011;5477;48.806;9.154;2022-08-19T06:13:42;26.43;;;23.37;;
10847;SDS011;5477;48.806;9.154;2022-08-19T06:16:13;29.37;;;22.63;;
10847;SDS011;5477;48.806;9.154;2022-08-19T06:18:45;28.67;;;23.20;;
10847;SDS011;5477;48.806;9.154;2022-08-19T06:21:14;28.17;;;23.23;;
10847;SDS011;5477;48.806;9.154;2022-08-19T06:23:44;26.07;;;22.23;;
10847;SDS011;5477;48.806;9.154;2022-08-19T06:26:14;24.57;;;21.50;;
10847;SDS011;5477;48.806;9.154;2022-08-19T06:28:43;25.63;;;21.53;;
10847;SDS011;5477;48.806;9.154;2022-08-19T06:31:13;32.03;;;24.07;;
10847;SDS011;5477;48.806;9.154;2022-08-19T06:33:42;28.47;;;24.43;;
10847;SDS011;5477;48.806;9.154;2022-08-19T06:36:16;30.50;;;22.43;;
10847;SDS011;5477;48.806;9.154;2022-08-19T06:38:46;27.73;;;22.93;;
10847;SDS011;5477;48.806;9.154;2022-08-19T06:41:14;27.73;;;22.53;;
10847;SDS011;5477;48.806;9.154;2022-08-19T06:43:43;25.83;;;22.00;;
10847;SDS011;5477;48.806;9.154;2022-08-19T06:46:12;28.53;;;22.93;;
10847;SDS011;5477;48.806;9.154;2022-08-19T06:48:41;28.20;;;23.60;;
10847;SDS011;5477;48.806;9.154;2022-08-19T06:51:13;26.03;;;22.90;;
10847;SDS011;5477;48.806;9.154;2022-08-19T06:53:46;25.40;;;22.63;;
10847;SDS011;5477;48.806;9.154;2022-08-19T06:56:21;27.23;;;22.50;;
10847;SDS011;5477;48.806;9.154;2022-08-19T06:58:51;27.77;;;23.83;;
10847;SDS011;5477;48.806;9.154;2022-08-19T07:01:20;30.07;;;23.07;;
10847;SDS011;5477;48.806;9.154;2022-08-19T07:03:48;27.73;;;24.20;;
10847;SDS011;5477;48.806;9.154;2022-08-19T07:06:16;27.03;;;23.27;;
10847;SDS011;5477;48.806;9.154;2022-08-19T07:09:08;28.83;;;23.57;;
10847;SDS011;5477;48.806;9.154;2022-08-19T07:11:37;26.83;;;23.40;;
10847;SDS011;5477;48.806;9.154;2022-08-19T07:14:05;26.93;;;22.60;;
10847;SDS011;5477;48.806;9.154;2022-08-19T07:16:45;26.93;;;22.83;;
10847;SDS011;5477;48.806;9.154;2022-08-19T07:19:15;28.37;;;23.50;;
10847;SDS011;5477;48.806;9.154;2022-08-19T07:21:44;28.37;;;21.53;;
10847;SDS011;5477;48.806;9.154;2022-08-19T07:24:14;26.07;;;22.57;;
10847;SDS011;5477;48.806;9.154;2022-08-19T07:26:42;29.53;;;23.87;;
10847;SDS011;5477;48.806;9.154;2022-08-19T07:29:11;24.60;;;21.97;;
10847;SDS011;5477;48.806;9.154;2022-08-19T07:31:40;27.63;;;23.43;;
10847;SDS011;5477;48.806;9.154;2022-08-19T07:34:09;27.67;;;22.70;;
10847;SDS011;5477;48.806;9.154;2022-08-19T07:36:40;26.97;;;22.03;;
10847;SDS011;5477;48.806;9.154;2022-08-19T07:39:11;28.77;;;22.07;;
10847;SDS011;5477;48.806;9.154;2022-08-19T07:41:43;27.40;;;22.23;;
10847;SDS011;5477;48.806;9.154;2022-08-19T07:44:13;26.37;;;21.90;;
10847;SDS011;5477;48.806;9.154;2022-08-19T07:46:45;26.30;;;21.73;;
10847;SDS011;5477;48.806;9.154;2022-08-19T07:49:18;28.43;;;21.77;;
10847;SDS011;5477;48.806;9.154;2022-08-19T07:51:48;24.90;;;20.63;;
10847;SDS011;5477;48.806;9.154;2022-08-19T07:54:20;23.97;;;20.37;;
10847;SDS011;5477;48.806;9.154;2022-08-19T07:56:49;23.83;;;20.00;;
10847;SDS011;5477;48.806;9.154;2022-08-19T07:59:19;27.20;;;20.03;;
10847;SDS011;5477;48.806;9.154;2022-08-19T08:01:48;24.90;;;20.50;;
10847;SDS011;5477;48.806;9.154;2022-08-19T08:04:17;23.33;;;20.83;;
10847;SDS011;5477;48.806;9.154;2022-08-19T08:07:03;22.00;;;19.63;;
10847;SDS011;5477;48.806;9.154;2022-08-19T08:09:58;24.80;;;20.40;;
10847;SDS011;5477;48.806;9.154;2022-08-19T08:12:30;24.20;;;19.30;;
10847;SDS011;5477;48.806;9.154;2022-08-19T08:15:02;24.23;;;20.17;;
10847;SDS011;5477;48.806;9.154;2022-08-19T08:17:37;24.57;;;20.40;;
10847;SDS011;5477;48.806;9.154;2022-08-19T08:20:15;23.00;;;20.43;;
10847;SDS011;5477;48.806;9.154;2022-08-19T08:22:44;25.27;;;20.37;;
10847;SDS011;5477;48.806;9.154;2022-08-19T08:25:32;37.90;;;19.87;;
10847;SDS011;5477;48.806;9.154;2022-08-19T08:28:03;22.57;;;19.63;;
10847;SDS011;5477;48.806;9.154;2022-08-19T08:30:32;23.10;;;19.30;;
10847;SDS011;5477;48.806;9.154;2022-08-19T08:33:02;22.43;;;18.37;;
10847;SDS011;5477;48.806;9.154;2022-08-19T08:35:31;23.70;;;19.27;;
10847;SDS011;5477;48.806;9.154;2022-08-19T08:37:59;20.93;;;18.53;;
10847;SDS011;5477;48.806;9.154;2022-08-19T08:40:32;29.43;;;19.23;;
10847;SDS011;5477;48.806;9.154;2022-08-19T08:43:18;23.00;;;18.90;;
10847;SDS011;5477;48.806;9.154;2022-08-19T08:45:58;24.33;;;19.70;;
10847;SDS011;5477;48.806;9.154;2022-08-19T08:48:34;23.30;;;19.93;;
10847;SDS011;5477;48.806;9.154;2022-08-19T08:51:07;22.73;;;19.80;;
10847;SDS011;5477;48.806;9.154;2022-08-19T08:53:38;26.33;;;20.03;;
10847;SDS011;5477;48.806;9.154;2022-08-19T08:56:10;25.47;;;20.57;;
10847;SDS011;5477;48.806;9.154;2022-08-19T08:58:47;24.77;;;19.27;;
10847;SDS011;5477;48.806;9.154;2022-08-19T09:01:21;23.03;;;19.70;;
10847;SDS011;5477;48.806;9.154;2022-08-19T09:03:55;22.10;;;19.53;;
10847;SDS011;5477;48.806;9.154;2022-08-19T09:06:32;25.20;;;19.17;;
10847;SDS011;5477;48.806;9.154;2022-08-19T09:09:10;20.17;;;17.97;;
10847;SDS011;5477;48.806;9.154;2022-08-19T09:11:49;23.37;;;19.63;;
10847;SDS011;5477;48.806;9.154;2022-08-19T09:14:29;25.40;;;17.83;;
10847;SDS011;5477;48.806;9.154;2022-08-19T09:17:18;22.57;;;17.83;;
10847;SDS011;5477;48.806;9.154;2022-08-19T09:19:55;22.90;;;17.40;;
10847;SDS011;5477;48.806;9.154;2022-08-19T09:22:27;21.13;;;17.90;;
10847;SDS011;5477;48.806;9.154;2022-08-19T09:24:55;19.53;;;16.93;;
10847;SDS011;5477;48.806;9.154;2022-08-19T09:27:26;22.97;;;17.97;;
10847;SDS011;5477;48.806;9.154;2022-08-19T09:30:10;18.70;;;16.70;;
10847;SDS011;5477;48.806;9.154;2022-08-19T09:32:42;18.97;;;16.13;;
10847;SDS011;5477;48.806;9.154;2022-08-19T09:35:12;19.23;;;15.67;;
10847;SDS011;5477;48.806;9.154;2022-08-19T09:37:41;21.03;;;16.40;;
10847;SDS011;5477;48.806;9.154;2022-08-19T09:40:10;19.03;;;16.40;;
10847;SDS011;5477;48.806;9.154;2022-08-19T09:42:42;18.73;;;16.00;;
10847;SDS011;5477;48.806;9.154;2022-08-19T09:45:17;18.13;;;15.67;;
10847;SDS011;5477;48.806;9.154;2022-08-19T09:47:48;18.40;;;15.47;;
10847;SDS011;5477;48.806;9.154;2022-08-19T09:50:20;17.57;;;14.83;;
10847;SDS011;5477;48.806;9.154;2022-08-19T09:52:50;16.60;;;13.97;;
10847;SDS011;5477;48.806;9.154;2022-08-19T09:55:23;19.17;;;13.73;;
10847;SDS011;5477;48.806;9.154;2022-08-19T09:58:02;16.13;;;13.80;;
10847;SDS011;5477;48.806;9.154;2022-08-19T10:00:30;16.40;;;14.37;;
10847;SDS011;5477;48.806;9.154;2022-08-19T10:02:58;15.47;;;13.70;;
10847;SDS011;5477;48.806;9.154;2022-08-19T10:05:26;15.30;;;13.70;;
10847;SDS011;5477;48.806;9.154;2022-08-19T10:08:14;15.07;;;13.47;;
10847;SDS011;5477;48.806;9.154;2022-08-19T10:10:46;20.10;;;14.10;;
10847;SDS011;5477;48.806;9.154;2022-08-19T10:13:17;15.17;;;13.57;;
10847;SDS011;5477;48.806;9.154;2022-08-19T10:15:50;17.97;;;14.03;;
10847;SDS011;5477;48.806;9.154;2022-08-19T10:18:21;15.90;;;12.93;;
10847;SDS011;5477;48.806;9.154;2022-08-19T10:20:51;17.07;;;13.43;;
10847;SDS011;5477;48.806;9.154;2022-08-19T10:23:20;15.80;;;13.00;;
10847;SDS011;5477;48.806;9.154;2022-08-19T10:25:49;15.63;;;12.73;;
10847;SDS011;5477;48.806;9.154;2022-08-19T10:28:21;18.70;;;12.90;;
10847;SDS011;5477;48.806;9.154;2022-08-19T10:30:49;17.40;;;12.60;;
10847;SDS011;5477;48.806;9.154;2022-08-19T10:33:17;15.10;;;12.63;;
10847;SDS011;5477;48.806;9.154;2022-08-19T10:36:06;13.90;;;12.27;;
10847;SDS011;5477;48.806;9.154;2022-08-19T10:38:36;14.77;;;12.07;;
10847;SDS011;5477;48.806;9.154;2022-08-19T10:41:19;13.77;;;11.37;;
10847;SDS011;5477;48.806;9.154;2022-08-19T10:43:51;15.87;;;11.23;;
10847;SDS011;5477;48.806;9.154;2022-08-19T10:46:21;12.83;;;10.53;;
10847;SDS011;5477;48.806;9.154;2022-08-19T10:48:51;12.93;;;10.57;;
10847;SDS011;5477;48.806;9.154;2022-08-19T10:51:20;14.10;;;11.27;;
10847;SDS011;5477;48.806;9.154;2022-08-19T10:54:14;12.87;;;10.83;;
10847;SDS011;5477;48.806;9.154;2022-08-19T10:56:56;12.90;;;10.37;;
10847;SDS011;5477;48.806;9.154;2022-08-19T10:59:25;12.77;;;10.03;;
10847;SDS011;5477;48.806;9.154;2022-08-19T11:02:01;14.80;;;10.27;;
10847;SDS011;5477;48.806;9.154;2022-08-19T11:04:31;12.53;;;10.40;;
10847;SDS011;5477;48.806;9.154;2022-08-19T11:07:01;13.33;;;9.93;;
10847;SDS011;5477;48.806;9.154;2022-08-19T11:09:29;13.83;;;9.93;;
10847;SDS011;5477;48.806;9.154;2022-08-19T11:12:00;13.50;;;10.37;;
10847;SDS011;5477;48.806;9.154;2022-08-19T11:14:31;10.73;;;9.63;;
10847;SDS011;5477;48.806;9.154;2022-08-19T11:17:00;11.17;;;9.20;;
10847;SDS011;5477;48.806;9.154;2022-08-19T11:19:29;13.73;;;9.37;;
10847;SDS011;5477;48.806;9.154;2022-08-19T11:21:58;11.23;;;8.90;;
10847;SDS011;5477;48.806;9.154;2022-08-19T11:24:29;11.20;;;8.90;;
10847;SDS011;5477;48.806;9.154;2022-08-19T11:27:03;13.20;;;9.70;;
10847;SDS011;5477;48.806;9.154;2022-08-19T11:29:35;10.53;;;8.90;;
10847;SDS011;5477;48.806;9.154;2022-08-19T11:32:06;11.40;;;8.17;;
10847;SDS011;5477;48.806;9.154;2022-08-19T11:34:36;9.17;;;8.20;;
10847;SDS011;5477;48.806;9.154;2022-08-19T11:37:05;10.77;;;8.33;;
10847;SDS011;5477;48.806;9.154;2022-08-19T11:39:36;8.47;;;7.63;;
10847;SDS011;5477;48.806;9.154;2022-08-19T11:42:05;11.90;;;8.73;;
10847;SDS011;5477;48.806;9.154;2022-08-19T11:44:55;14.13;;;8.60;;
10847;SDS011;5477;48.806;9.154;2022-08-19T11:47:24;9.47;;;8.40;;
10847;SDS011;5477;48.806;9.154;2022-08-19T11:49:52;9.13;;;8.17;;
10847;SDS011;5477;48.806;9.154;2022-08-19T11:52:21;10.67;;;8.70;;
10847;SDS011;5477;48.806;9.154;2022-08-19T11:54:49;13.67;;;9.10;;
10847;SDS011;5477;48.806;9.154;2022-08-19T11:57:17;9.17;;;8.20;;
10847;SDS011;5477;48.806;9.154;2022-08-19T11:59:49;9.97;;;8.77;;
10847;SDS011;5477;48.806;9.154;2022-08-19T12:02:20;10.17;;;8.73;;
10847;SDS011;5477;48.806;9.154;2022-08-19T12:04:49;10.43;;;8.77;;
10847;SDS011;5477;48.806;9.154;2022-08-19T12:07:17;12.33;;;8.70;;
10847;SDS011;5477;48.806;9.154;2022-08-19T12:09:45;12.03;;;8.27;;
10847;SDS011;5477;48.806;9.154;2022-08-19T12:12:14;11.23;;;8.43;;
10847;SDS011;5477;48.806;9.154;2022-08-19T12:14:42;9.63;;;8.40;;
10847;SDS011;5477;48.806;9.154;2022-08-19T12:17:11;9.03;;;8.13;;
10847;SDS011;5477;48.806;9.154;2022-08-19T12:19:41;10.07;;;8.50;;
10847;SDS011;5477;48.806;9.154;2022-08-19T12:22:09;9.17;;;7.93;;
10847;SDS011;5477;48.806;9.154;2022-08-19T12:24:37;11.80;;;8.57;;
10847;SDS011;5477;48.806;9.154;2022-08-19T12:27:05;9.57;;;8.53;;
10847;SDS011;5477;48.806;9.154;2022-08-19T12:29:38;10.87;;;9.07;;
10847;SDS011;5477;48.806;9.154;2022-08-19T12:32:07;9.67;;;8.67;;
10847;SDS011;5477;48.806;9.154;2022-08-19T12:34:37;10.07;;;7.67;;
10847;SDS011;5477;48.806;9.154;2022-08-19T12:37:07;13.23;;;8.60;;
10847;SDS011;5477;48.806;9.154;2022-08-19T12:39:38;9.23;;;8.30;;
10847;SDS011;5477;48.806;9.154;2022-08-19T12:42:08;8.70;;;7.80;;
10847;SDS011;5477;48.806;9.154;2022-08-19T12:44:37;9.23;;;8.33;;
10847;SDS011;5477;48.806;9.154;2022-08-19T12:47:08;9.70;;;8.10;;
10847;SDS011;5477;48.806;9.154;2022-08-19T12:49:38;11.37;;;8.30;;
10847;SDS011;5477;48.806;9.154;2022-08-19T12:52:22;10.63;;;7.93;;
10847;SDS011;5477;48.806;9.154;2022-08-19T12:54:51;9.53;;;7.83;;
10847;SDS011;5477;48.806;9.154;2022-08-19T12:57:21;8.50;;;7.57;;
10847;SDS011;5477;48.806;9.154;2022-08-19T12:59:57;11.63;;;8.50;;
10847;SDS011;5477;48.806;9.154;2022-08-19T13:02:26;8.57;;;7.50;;
10847;SDS011;5477;48.806;9.154;2022-08-19T13:04:54;10.90;;;9.23;;
10847;SDS011;5477;48.806;9.154;2022-08-19T13:07:24;15.97;;;10.57;;
10847;SDS011;5477;48.806;9.154;2022-08-19T13:09:52;13.17;;;10.87;;
10847;SDS011;5477;48.806;9.154;2022-08-19T13:12:20;14.20;;;10.27;;
10847;SDS011;5477;48.806;9.154;2022-08-19T13:14:50;13.50;;;10.40;;
10847;SDS011;5477;48.806;9.154;2022-08-19T13:17:18;12.83;;;9.93;;
10847;SDS011;5477;48.806;9.154;2022-08-19T13:19:47;12.33;;;10.00;;
10847;SDS011;5477;48.806;9.154;2022-08-19T13:22:15;11.53;;;10.33;;
10847;SDS011;5477;48.806;9.154;2022-08-19T13:24:45;14.50;;;11.40;;
10847;SDS011;5477;48.806;9.154;2022-08-19T13:27:13;14.00;;;11.00;;
10847;SDS011;5477;48.806;9.154;2022-08-19T13:29:41;14.80;;;11.53;;
10847;SDS011;5477;48.806;9.154;2022-08-19T13:32:28;13.73;;;12.30;;
10847;SDS011;5477;48.806;9.154;2022-08-19T13:35:14;21.37;;;13.97;;
10847;SDS011;5477;48.806;9.154;2022-08-19T13:37:43;19.73;;;14.50;;
10847;SDS011;5477;48.806;9.154;2022-08-19T13:40:13;17.87;;;14.83;;
10847;SDS011;5477;48.806;9.154;2022-08-19T13:42:45;18.50;;;15.10;;
10847;SDS011;5477;48.806;9.154;2022-08-19T13:45:16;22.20;;;17.07;;
10847;SDS011;5477;48.806;9.154;2022-08-19T13:47:46;20.93;;;16.93;;
10847;SDS011;5477;48.806;9.154;2022-08-19T13:50:15;22.00;;;17.97;;
10847;SDS011;5477;48.806;9.154;2022-08-19T13:52:45;23.67;;;19.83;;
10847;SDS011;5477;48.806;9.154;2022-08-19T13:55:15;26.60;;;22.80;;
10847;SDS011;5477;48.806;9.154;2022-08-19T13:57:50;25.57;;;22.43;;
10847;SDS011;5477;48.806;9.154;2022-08-19T14:00:19;26.70;;;22.93;;
10847;SDS011;5477;48.806;9.154;2022-08-19T14:02:52;26.90;;;23.77;;
10847;SDS011;5477;48.806;9.154;2022-08-19T14:05:22;28.20;;;24.23;;
10847;SDS011;5477;48.806;9.154;2022-08-19T14:07:50;27.10;;;23.33;;
10847;SDS011;5477;48.806;9.154;2022-08-19T14:10:20;26.77;;;23.73;;
10847;SDS011;5477;48.806;9.154;2022-08-19T14:12:49;29.03;;;24.97;;
10847;SDS011;5477;48.806;9.154;2022-08-19T14:15:21;25.03;;;22.43;;
10847;SDS011;5477;48.806;9.154;2022-08-19T14:17:50;25.43;;;22.57;;
10847;SDS011;5477;48.806;9.154;2022-08-19T14:20:19;27.67;;;22.23;;
10847;SDS011;5477;48.806;9.154;2022-08-19T14:22:52;24.93;;;20.87;;
10847;SDS011;5477;48.806;9.154;2022-08-19T14:25:23;23.30;;;20.80;;
10847;SDS011;5477;48.806;9.154;2022-08-19T14:27:53;25.20;;;20.10;;
10847;SDS011;5477;48.806;9.154;2022-08-19T14:30:22;25.27;;;21.77;;
10847;SDS011;5477;48.806;9.154;2022-08-19T14:32:53;25.27;;;21.37;;
10847;SDS011;5477;48.806;9.154;2022-08-19T14:35:22;25.90;;;20.97;;
10847;SDS011;5477;48.806;9.154;2022-08-19T14:37:50;23.43;;;20.13;;
10847;SDS011;5477;48.806;9.154;2022-08-19T14:40:24;23.13;;;20.10;;
10847;SDS011;5477;48.806;9.154;2022-08-19T14:42:53;23.23;;;18.63;;
10847;SDS011;5477;48.806;9.154;2022-08-19T14:45:26;21.53;;;19.23;;
10847;SDS011;5477;48.806;9.154;2022-08-19T14:47:55;23.17;;;19.17;;
10847;SDS011;5477;48.806;9.154;2022-08-19T14:50:25;21.10;;;18.80;;
10847;SDS011;5477;48.806;9.154;2022-08-19T14:52:57;21.60;;;19.37;;
10847;SDS011;5477;48.806;9.154;2022-08-19T14:55:33;20.53;;;18.33;;
10847;SDS011;5477;48.806;9.154;2022-08-19T14:58:02;21.60;;;18.03;;
10847;SDS011;5477;48.806;9.154;2022-08-19T15:00:34;19.87;;;17.33;;